Time;durP1;ratioP1;P1;durP2;ratioP2;P2;SDS_P1;SDS_P2;PMS_P1;PMS_P2;Temp;Humidity;BMP_temperature;BMP_pressure;BME280_temperature;BME280_humidity;BME280_pressure;Samples;Min_cycle;Max_cycle;Signal;HPM_P1;HPM_P2
2021/04/08 00:01:58;;;;;;;5.35;1.15;;;14.70;55.60;;;;;;5081075;28;20048;-78
2021/04/08 00:04:24;;;;;;;5.78;1.75;;;14.60;55.50;;;;;;5098844;28;20465;-77
2021/04/08 00:06:50;;;;;;;4.70;1.17;;;14.70;55.60;;;;;;5080734;28;20044;-79
2021/04/08 00:09:16;;;;;;;4.80;1.23;;;14.60;55.60;;;;;;5081645;28;20036;-78
2021/04/08 00:11:42;;;;;;;7.35;1.35;;;14.60;55.60;;;;;;5098920;28;20392;-79
2021/04/08 00:14:08;;;;;;;6.57;1.45;;;14.60;55.50;;;;;;5080507;28;20125;-78
2021/04/08 00:16:34;;;;;;;6.13;1.13;;;14.60;55.60;;;;;;5098409;28;20036;-78
2021/04/08 00:19:00;;;;;;;3.60;1.02;;;14.60;55.60;;;;;;5099057;28;20048;-76
2021/04/08 00:21:26;;;;;;;4.95;0.90;;;14.60;55.50;;;;;;5098326;28;20064;-76
2021/04/08 00:23:52;;;;;;;8.35;1.73;;;14.60;55.40;;;;;;5098254;28;20044;-79
2021/04/08 00:26:18;;;;;;;5.25;1.25;;;14.60;55.40;;;;;;5097991;28;20385;-76
2021/04/08 00:28:44;;;;;;;6.03;1.30;;;14.60;55.50;;;;;;5081230;28;20040;-78
2021/04/08 00:31:10;;;;;;;9.63;1.10;;;14.50;55.30;;;;;;5098696;28;20039;-78
2021/04/08 00:33:36;;;;;;;3.63;1.08;;;14.50;55.30;;;;;;5098131;28;20040;-77
2021/04/08 00:36:02;;;;;;;4.68;1.10;;;14.50;55.10;;;;;;5080146;28;20362;-79
2021/04/08 00:38:28;;;;;;;3.35;1.08;;;14.50;55.00;;;;;;5080697;28;20105;-78
2021/04/08 00:40:54;;;;;;;4.55;1.02;;;14.50;55.10;;;;;;5098375;28;20043;-78
2021/04/08 00:43:20;;;;;;;3.97;1.00;;;14.60;55.10;;;;;;5080173;28;20350;-77
2021/04/08 00:45:46;;;;;;;4.60;1.23;;;14.50;55.00;;;;;;5098432;28;20047;-79
2021/04/08 00:48:12;;;;;;;5.78;1.20;;;14.50;55.00;;;;;;5097808;28;20084;-78
2021/04/08 00:50:38;;;;;;;5.35;1.00;;;14.50;55.10;;;;;;5079724;28;20468;-78
2021/04/08 00:53:07;;;;;;;4.28;1.00;;;14.50;55.10;;;;;;5098207;28;20048;-79
2021/04/08 00:55:36;;;;;;;4.40;0.98;;;14.50;55.10;;;;;;5097665;28;20044;-77
2021/04/08 00:58:04;;;;;;;4.07;0.70;;;14.50;55.10;;;;;;5097775;28;20389;-77
2021/04/08 01:00:31;;;;;;;3.95;0.80;;;14.50;55.20;;;;;;5097688;28;20050;-76
2021/04/08 01:02:56;;;;;;;3.88;0.77;;;14.50;55.30;;;;;;5096887;28;20124;-79
2021/04/08 01:05:23;;;;;;;4.05;0.73;;;14.40;55.30;;;;;;5097416;28;20080;-77
2021/04/08 01:07:50;;;;;;;3.95;1.02;;;14.50;55.40;;;;;;5097896;28;20116;-79
2021/04/08 01:10:18;;;;;;;5.93;1.05;;;14.40;55.30;;;;;;5097240;28;20036;-80
2021/04/08 01:12:43;;;;;;;5.05;1.00;;;14.40;55.40;;;;;;5096482;28;20124;-79
2021/04/08 01:15:10;;;;;;;2.72;0.90;;;14.40;55.50;;;;;;5097254;28;20428;-81
2021/04/08 01:17:43;;;;;;;5.10;1.20;;;14.40;55.50;;;;;;5097283;28;20413;-79
2021/04/08 01:20:41;;;;;;;3.85;1.15;;;14.40;55.50;;;;;;5096675;28;20089;-79
2021/04/08 01:23:35;;;;;;;3.88;0.70;;;14.40;55.30;;;;;;5096996;28;20061;-79
2021/04/08 01:26:27;;;;;;;6.45;0.95;;;14.40;55.40;;;;;;5097047;28;20051;-79
2021/04/08 01:29:12;;;;;;;4.72;1.13;;;14.40;55.40;;;;;;5096846;28;20439;-81
2021/04/08 01:31:38;;;;;;;3.45;0.75;;;14.30;55.40;;;;;;5079246;28;20080;-78
2021/04/08 01:34:09;;;;;;;5.63;1.15;;;14.30;55.50;;;;;;5079074;28;20063;-79
2021/04/08 01:36:38;;;;;;;4.00;1.20;;;14.30;55.60;;;;;;5096892;28;20105;-79
2021/04/08 01:39:09;;;;;;;4.30;0.75;;;14.30;55.70;;;;;;5096859;28;20048;-78
2021/04/08 01:41:41;;;;;;;3.63;0.80;;;14.30;55.60;;;;;;5096651;28;20391;-79
2021/04/08 01:44:11;;;;;;;2.45;0.73;;;14.30;55.60;;;;;;5096714;28;20053;-78
2021/04/08 01:46:41;;;;;;;3.38;0.75;;;14.30;55.70;;;;;;5096633;28;20404;-77
2021/04/08 01:49:08;;;;;;;4.63;0.90;;;14.30;55.60;;;;;;5096640;28;20036;-79
2021/04/08 01:51:36;;;;;;;4.40;1.13;;;14.30;55.60;;;;;;5096648;28;20043;-80
2021/04/08 01:54:05;;;;;;;3.63;1.08;;;14.20;55.50;;;;;;5096654;28;20450;-76
2021/04/08 01:56:34;;;;;;;3.13;0.40;;;14.20;55.50;;;;;;5096314;28;20048;-79
2021/04/08 01:59:00;;;;;;;4.38;0.77;;;14.20;55.50;;;;;;5096536;28;20481;-79
2021/04/08 02:01:27;;;;;;;6.05;0.98;;;14.20;55.50;;;;;;5078751;28;20109;-77
2021/04/08 02:03:53;;;;;;;5.75;0.90;;;14.20;55.50;;;;;;5096019;28;20036;-78
2021/04/08 02:06:24;;;;;;;4.40;0.80;;;14.20;55.40;;;;;;5078384;28;20044;-78
2021/04/08 02:08:51;;;;;;;4.55;1.00;;;14.20;55.50;;;;;;5078799;28;20044;-80
2021/04/08 02:11:18;;;;;;;4.55;0.80;;;14.20;55.50;;;;;;5096457;28;20048;-76
2021/04/08 02:13:46;;;;;;;3.85;0.88;;;14.20;55.50;;;;;;5095976;28;20040;-78
2021/04/08 02:16:14;;;;;;;5.57;1.15;;;14.20;55.50;;;;;;5095677;28;20122;-79
2021/04/08 02:18:41;;;;;;;3.83;0.90;;;14.20;55.50;;;;;;5096665;28;20047;-78
2021/04/08 02:21:08;;;;;;;5.70;0.82;;;14.10;56.10;;;;;;5095912;28;20526;-80
2021/04/08 02:23:39;;;;;;;5.15;0.80;;;14.10;55.50;;;;;;5077677;28;20363;-77
2021/04/08 02:26:08;;;;;;;4.53;0.98;;;14.10;55.50;;;;;;5096233;28;20040;-77
2021/04/08 02:28:36;;;;;;;4.32;0.70;;;14.10;55.50;;;;;;5095922;28;20044;-76
2021/04/08 02:31:03;;;;;;;3.95;0.88;;;14.10;55.50;;;;;;5095468;28;20038;-78
2021/04/08 02:33:30;;;;;;;4.75;0.85;;;14.10;55.50;;;;;;5096313;28;20035;-78
2021/04/08 02:35:58;;;;;;;4.82;1.00;;;14.10;55.40;;;;;;5096492;28;20375;-77
2021/04/08 02:38:27;;;;;;;3.70;0.75;;;14.10;55.50;;;;;;5095715;28;20044;-78
2021/04/08 02:40:54;;;;;;;3.83;0.70;;;14.10;55.50;;;;;;5095749;28;20054;-78
2021/04/08 02:43:21;;;;;;;3.50;0.65;;;14.10;55.50;;;;;;5077927;28;20391;-80
2021/04/08 02:45:47;;;;;;;3.92;0.70;;;14.10;55.50;;;;;;5095695;28;20047;-77
2021/04/08 02:48:16;;;;;;;3.97;0.68;;;14.10;55.50;;;;;;5077779;28;20123;-77
2021/04/08 02:50:44;;;;;;;4.43;1.23;;;14.10;55.50;;;;;;5095433;28;20054;-76
2021/04/08 02:53:16;;;;;;;3.60;0.60;;;14.10;55.60;;;;;;5095468;28;20070;-78
2021/04/08 02:56:01;;;;;;;3.75;0.95;;;14.10;55.60;;;;;;5095909;28;20047;-79
2021/04/08 02:58:35;;;;;;;4.72;0.82;;;14.10;55.50;;;;;;5077674;28;20040;-79
2021/04/08 03:01:05;;;;;;;3.83;0.75;;;14.10;55.50;;;;;;5078329;28;20044;-79
2021/04/08 03:03:40;;;;;;;3.65;0.90;;;14.00;55.50;;;;;;5095068;28;20036;-77
2021/04/08 03:06:09;;;;;;;4.90;1.05;;;14.00;55.40;;;;;;5095183;28;20105;-78
2021/04/08 03:08:41;;;;;;;4.70;0.88;;;14.00;55.50;;;;;;5095170;28;20134;-78
2021/04/08 03:11:11;;;;;;;3.70;0.77;;;14.00;55.30;;;;;;5077503;28;20032;-79
2021/04/08 03:13:42;;;;;;;3.88;0.63;;;14.00;55.30;;;;;;5094904;28;20469;-80
2021/04/08 03:16:24;;;;;;;2.60;0.80;;;14.00;55.20;;;;;;5095030;28;20035;-77
2021/04/08 03:18:56;;;;;;;4.03;0.73;;;13.90;55.20;;;;;;5094913;28;20039;-79
2021/04/08 03:21:25;;;;;;;2.55;0.63;;;14.00;55.30;;;;;;5095224;28;20069;-77
2021/04/08 03:23:57;;;;;;;3.08;0.85;;;13.90;55.20;;;;;;5094137;28;20088;-79
2021/04/08 03:26:25;;;;;;;2.47;0.90;;;13.90;55.20;;;;;;5095224;28;20032;-78
2021/04/08 03:28:52;;;;;;;3.28;0.57;;;13.90;55.20;;;;;;5095471;28;20040;-78
2021/04/08 03:31:19;;;;;;;3.47;0.77;;;13.90;55.10;;;;;;5095650;28;20427;-77
2021/04/08 03:33:46;;;;;;;4.43;1.23;;;13.90;55.00;;;;;;5094931;28;20048;-78
2021/04/08 03:36:16;;;;;;;2.80;0.40;;;13.90;54.90;;;;;;5098911;28;20039;-76
2021/04/08 03:38:43;;;;;;;3.97;0.95;;;13.90;54.80;;;;;;5099352;28;20046;-77
2021/04/08 03:41:10;;;;;;;4.10;0.88;;;13.90;54.80;;;;;;5098973;28;20036;-77
2021/04/08 03:43:36;;;;;;;3.33;0.60;;;13.90;54.80;;;;;;5099300;28;20498;-77
2021/04/08 03:46:04;;;;;;;3.92;0.90;;;13.90;54.80;;;;;;5099295;28;20048;-76
2021/04/08 03:48:33;;;;;;;3.88;0.80;;;13.90;54.90;;;;;;5099435;28;20415;-77
2021/04/08 03:50:59;;;;;;;3.53;0.90;;;13.80;54.90;;;;;;5099029;28;20107;-79
2021/04/08 03:53:26;;;;;;;1.92;0.50;;;13.90;55.00;;;;;;5099098;28;20060;-78
2021/04/08 03:55:55;;;;;;;3.17;0.90;;;13.80;54.90;;;;;;5099130;28;20040;-78
2021/04/08 03:58:22;;;;;;;4.10;0.75;;;13.80;54.80;;;;;;5098269;28;20055;-79
2021/04/08 04:00:48;;;;;;;1.92;0.45;;;13.80;54.90;;;;;;5099204;28;20359;-76
2021/04/08 04:03:16;;;;;;;2.53;0.70;;;13.80;55.00;;;;;;5099284;28;20051;-78
2021/04/08 04:05:46;;;;;;;2.83;0.73;;;13.80;55.10;;;;;;5098579;28;20123;-78
2021/04/08 04:08:12;;;;;;;2.45;0.50;;;13.80;55.00;;;;;;5081041;28;20108;-79
2021/04/08 04:10:39;;;;;;;1.83;0.40;;;13.80;55.10;;;;;;5098510;28;20473;-79
2021/04/08 04:13:06;;;;;;;3.80;0.70;;;13.80;55.10;;;;;;5098421;28;20048;-78
2021/04/08 04:15:36;;;;;;;2.80;0.70;;;13.70;55.10;;;;;;5098396;28;20051;-79
2021/04/08 04:18:09;;;;;;;3.28;0.95;;;13.80;55.20;;;;;;5080889;28;20051;-76
2021/04/08 04:20:35;;;;;;;4.60;0.73;;;13.80;55.10;;;;;;5097645;28;20036;-77
2021/04/08 04:23:03;;;;;;;5.00;0.70;;;13.80;55.10;;;;;;5098410;28;20040;-77
2021/04/08 04:25:29;;;;;;;6.85;1.02;;;13.80;55.20;;;;;;5095065;28;20051;-80
2021/04/08 04:27:55;;;;;;;4.82;0.77;;;13.70;55.70;;;;;;5084286;28;20451;-74
2021/04/08 04:30:22;;;;;;;5.32;0.60;;;13.70;55.60;;;;;;5112337;28;20114;-79
2021/04/08 04:32:47;;;;;;;6.40;0.50;;;13.70;55.40;;;;;;5099157;28;20044;-73
2021/04/08 04:35:16;;;;;;;4.65;0.40;;;13.80;55.30;;;;;;5098335;28;20427;-75
2021/04/08 04:37:43;;;;;;;4.28;0.65;;;14.00;55.20;;;;;;5098342;28;20032;-75
2021/04/08 04:40:10;;;;;;;3.70;0.65;;;14.20;55.00;;;;;;5098071;28;20101;-77
2021/04/08 04:42:36;;;;;;;3.60;0.35;;;14.50;54.70;;;;;;5095895;28;20047;-74
2021/04/08 04:45:04;;;;;;;6.60;0.65;;;14.70;54.50;;;;;;5097770;28;20074;-74
2021/04/08 04:47:30;;;;;;;2.42;0.45;;;14.80;50.80;;;;;;5098284;28;20036;-78
2021/04/08 04:49:56;;;;;;;4.93;0.80;;;14.70;54.10;;;;;;5097269;28;20039;-75
2021/04/08 04:52:22;;;;;;;4.60;0.70;;;14.80;54.20;;;;;;5096851;28;20044;-78
2021/04/08 04:54:47;;;;;;;13.55;1.27;;;15.00;54.30;;;;;;5097638;28;20032;-76
2021/04/08 04:57:13;;;;;;;10.02;0.93;;;15.20;54.20;;;;;;5097219;28;20105;-78
2021/04/08 04:59:39;;;;;;;6.45;0.70;;;14.90;52.10;;;;;;5097453;28;20039;-75
2021/04/08 05:02:05;;;;;;;8.05;1.08;;;14.40;53.50;;;;;;5097210;28;20039;-77
2021/04/08 05:04:31;;;;;;;10.30;0.90;;;14.70;56.20;;;;;;5097585;28;20048;-72
2021/04/08 05:06:57;;;;;;;6.95;1.60;;;15.10;56.00;;;;;;5097430;28;20040;-72
2021/04/08 05:09:23;;;;;;;5.75;0.70;;;15.40;55.70;;;;;;5096789;28;20044;-75
2021/04/08 05:11:48;;;;;;;13.30;0.95;;;15.60;55.90;;;;;;5097383;28;20044;-77
2021/04/08 05:14:14;;;;;;;8.02;1.10;;;15.80;56.30;;;;;;5079595;28;20043;-75
2021/04/08 05:16:40;;;;;;;5.07;0.93;;;15.60;54.80;;;;;;5097005;28;20324;-75
2021/04/08 05:19:07;;;;;;;7.90;1.05;;;15.80;56.60;;;;;;5097307;28;20044;-75
2021/04/08 05:21:33;;;;;;;7.38;0.90;;;16.00;56.90;;;;;;5097226;28;20474;-74
2021/04/08 05:23:59;;;;;;;10.75;0.73;;;16.10;56.70;;;;;;5096900;28;20082;-74
2021/04/08 05:26:25;;;;;;;3.92;0.77;;;16.30;56.60;;;;;;5097201;28;20369;-76
2021/04/08 05:28:50;;;;;;;8.85;0.88;;;16.40;56.40;;;;;;5096950;28;20397;-75
2021/04/08 05:31:16;;;;;;;5.53;0.82;;;16.40;56.20;;;;;;5096300;28;20063;-75
2021/04/08 05:33:42;;;;;;;6.35;0.73;;;16.60;56.30;;;;;;5097006;28;20035;-75
2021/04/08 05:36:08;;;;;;;11.45;1.10;;;16.70;56.00;;;;;;5097351;28;20048;-76
2021/04/08 05:38:34;;;;;;;4.35;0.75;;;16.80;55.30;;;;;;5097268;28;20489;-73
2021/04/08 05:41:00;;;;;;;7.63;1.20;;;16.90;55.30;;;;;;5096338;28;20079;-75
2021/04/08 05:43:26;;;;;;;7.45;0.80;;;17.00;55.40;;;;;;5096312;28;20438;-79
2021/04/08 05:45:52;;;;;;;10.98;1.30;;;16.90;55.30;;;;;;5096719;28;20040;-77
2021/04/08 05:48:18;;;;;;;10.40;1.13;;;16.90;53.80;;;;;;5096483;28;20040;-78
2021/04/08 05:50:44;;;;;;;9.32;1.20;;;16.70;54.50;;;;;;5096769;28;20115;-82
2021/04/08 05:53:10;;;;;;;12.93;1.67;;;16.80;54.50;;;;;;5096383;28;20056;-79
2021/04/08 05:55:35;;;;;;;12.15;1.65;;;16.90;54.90;;;;;;5096302;28;20042;-80
2021/04/08 05:58:01;;;;;;;8.65;1.60;;;17.00;54.80;;;;;;5095975;28;20048;-78
2021/04/08 06:00:27;;;;;;;8.52;1.65;;;17.10;54.60;;;;;;5096392;28;20040;-79
2021/04/08 06:02:56;;;;;;;6.60;1.33;;;17.20;54.30;;;;;;5096296;28;20111;-79
2021/04/08 06:05:22;;;;;;;23.63;2.72;;;17.30;53.90;;;;;;5096115;28;20401;-78
2021/04/08 06:07:48;;;;;;;5.07;1.17;;;17.10;53.80;;;;;;5096463;28;20502;-79
2021/04/08 06:10:14;;;;;;;4.60;1.20;;;17.30;53.90;;;;;;5078150;28;20115;-76
2021/04/08 06:12:43;;;;;;;4.68;1.52;;;17.10;54.00;;;;;;5095879;28;20044;-78
2021/04/08 06:15:10;;;;;;;13.32;1.90;;;17.20;53.70;;;;;;5095921;28;20127;-76
2021/04/08 06:17:37;;;;;;;16.15;1.90;;;17.20;53.20;;;;;;5095977;28;20039;-74
2021/04/08 06:20:08;;;;;;;6.65;1.75;;;17.00;53.30;;;;;;5095940;28;20104;-79
2021/04/08 06:22:34;;;;;;;7.63;1.73;;;17.00;52.60;;;;;;5096002;28;20042;-75
2021/04/08 06:25:00;;;;;;;8.25;1.40;;;17.00;52.60;;;;;;5095850;28;20335;-73
2021/04/08 06:27:28;;;;;;;6.78;1.25;;;17.00;52.70;;;;;;5095627;28;20047;-72
2021/04/08 06:29:54;;;;;;;7.68;1.67;;;17.00;52.70;;;;;;5095637;28;20450;-71
2021/04/08 06:32:20;;;;;;;6.60;1.45;;;17.00;53.20;;;;;;5096038;28;20039;-73
2021/04/08 06:34:45;;;;;;;4.00;1.05;;;16.90;52.60;;;;;;5096020;28;20107;-75
2021/04/08 06:37:11;;;;;;;7.85;1.15;;;16.80;51.60;;;;;;5095557;28;20114;-75
2021/04/08 06:39:38;;;;;;;7.75;1.95;;;16.80;50.60;;;;;;5094922;28;20064;-71
2021/04/08 06:42:05;;;;;;;7.45;1.52;;;16.70;49.90;;;;;;5095594;28;20136;-73
2021/04/08 06:44:33;;;;;;;5.63;1.27;;;16.70;50.20;;;;;;5095838;28;20111;-73
2021/04/08 06:47:03;;;;;;;11.48;1.60;;;16.70;50.40;;;;;;5096058;28;20118;-72
2021/04/08 06:49:43;;;;;;;8.57;1.35;;;16.40;52.00;;;;;;5095172;28;20123;-72
2021/04/08 06:52:10;;;;;;;6.93;1.50;;;16.30;52.40;;;;;;5095514;28;20119;-75
2021/04/08 06:54:38;;;;;;;6.38;1.20;;;16.10;52.60;;;;;;5095580;28;20489;-74
2021/04/08 06:57:05;;;;;;;4.30;1.17;;;16.10;52.50;;;;;;5095657;28;20067;-72
2021/04/08 06:59:32;;;;;;;8.52;1.40;;;16.00;52.10;;;;;;5095847;28;20046;-73
2021/04/08 07:01:59;;;;;;;7.45;1.48;;;16.00;52.10;;;;;;5095468;28;20430;-74
2021/04/08 07:04:24;;;;;;;10.55;1.50;;;16.00;52.20;;;;;;5095190;28;20048;-74
2021/04/08 07:06:50;;;;;;;4.97;0.80;;;15.90;52.40;;;;;;5095080;28;20089;-73
2021/04/08 07:09:16;;;;;;;4.38;1.15;;;15.90;52.90;;;;;;5095208;28;20044;-74
2021/04/08 07:11:42;;;;;;;3.08;0.93;;;15.90;53.20;;;;;;5095656;28;20036;-73
2021/04/08 07:14:10;;;;;;;4.68;1.00;;;15.80;53.30;;;;;;5095143;28;20113;-73
2021/04/08 07:16:37;;;;;;;4.20;0.90;;;15.80;53.20;;;;;;5095517;28;20035;-73
2021/04/08 07:19:04;;;;;;;4.05;1.17;;;15.70;53.30;;;;;;5094754;28;20372;-74
2021/04/08 07:21:32;;;;;;;4.65;1.02;;;15.70;53.40;;;;;;5095450;28;20354;-75
2021/04/08 07:24:18;;;;;;;5.20;0.80;;;15.60;53.70;;;;;;5095104;28;20077;-72
2021/04/08 07:26:56;;;;;;;2.20;0.68;;;15.60;53.70;;;;;;5095442;28;20393;-73
2021/04/08 07:29:26;;;;;;;2.55;0.73;;;15.60;53.90;;;;;;5094583;28;20054;-74
2021/04/08 07:31:57;;;;;;;4.97;0.90;;;15.50;54.10;;;;;;5077338;28;20078;-73
2021/04/08 07:34:46;;;;;;;4.03;1.17;;;15.50;54.40;;;;;;5095107;28;20028;-74
2021/04/08 07:37:13;;;;;;;2.92;0.85;;;15.50;54.20;;;;;;5077278;28;20405;-72
2021/04/08 07:39:44;;;;;;;3.67;0.90;;;15.40;54.80;;;;;;5094067;28;20137;-73
2021/04/08 07:42:14;;;;;;;3.58;0.70;;;15.40;55.20;;;;;;5095092;28;20342;-75
2021/04/08 07:44:51;;;;;;;4.18;0.70;;;15.40;55.20;;;;;;5077185;28;20147;-72
2021/04/08 07:47:16;;;;;;;5.20;1.00;;;15.40;55.60;;;;;;5094755;28;20496;-74
2021/04/08 07:49:43;;;;;;;3.25;0.65;;;15.30;55.70;;;;;;5094868;28;20044;-73
2021/04/08 07:52:31;;;;;;;2.58;0.80;;;15.30;56.00;;;;;;5094775;28;20040;-74
2021/04/08 07:55:13;;;;;;;4.28;0.85;;;15.20;55.20;;;;;;5094639;28;20072;-75
2021/04/08 07:57:53;;;;;;;4.78;0.82;;;15.30;56.40;;;;;;5094684;28;20048;-74
2021/04/08 08:00:30;;;;;;;2.85;0.77;;;15.20;56.00;;;;;;5094471;28;20071;-74
2021/04/08 08:02:58;;;;;;;2.88;0.75;;;15.20;56.80;;;;;;5095057;28;20347;-73
2021/04/08 08:05:29;;;;;;;3.25;0.57;;;15.20;57.00;;;;;;5095413;28;20099;-73
2021/04/08 08:08:11;;;;;;;3.10;1.10;;;15.10;57.10;;;;;;5094772;28;20047;-75
2021/04/08 08:10:40;;;;;;;3.38;0.90;;;15.10;56.50;;;;;;5094426;28;20399;-74
2021/04/08 08:13:27;;;;;;;3.53;0.80;;;15.10;57.40;;;;;;5093924;28;20071;-73
2021/04/08 08:15:55;;;;;;;3.55;0.70;;;15.10;56.70;;;;;;5094894;28;20036;-74
2021/04/08 08:18:28;;;;;;;4.15;1.00;;;15.10;57.30;;;;;;5095159;28;20123;-75
2021/04/08 08:21:03;;;;;;;3.33;0.80;;;15.00;57.10;;;;;;5096214;28;20042;-73
2021/04/08 08:23:52;;;;;;;2.47;0.65;;;15.00;57.20;;;;;;5098288;28;20133;-74
2021/04/08 08:26:41;;;;;;;3.58;0.80;;;15.00;57.10;;;;;;5098343;28;20040;-74
2021/04/08 08:29:10;;;;;;;2.45;0.82;;;15.00;56.70;;;;;;5098218;28;20047;-73
2021/04/08 08:31:48;;;;;;;2.88;0.45;;;14.90;57.70;;;;;;5098007;28;20046;-74
2021/04/08 08:34:31;;;;;;;3.92;0.60;;;14.90;57.80;;;;;;5098101;28;20036;-73
2021/04/08 08:37:00;;;;;;;3.47;0.70;;;14.90;57.40;;;;;;5098535;28;20320;-74
2021/04/08 08:39:33;;;;;;;2.08;0.77;;;14.90;58.00;;;;;;5098282;28;20044;-74
2021/04/08 08:42:02;;;;;;;2.00;0.60;;;14.90;58.10;;;;;;5097838;28;20052;-74
2021/04/08 08:44:29;;;;;;;2.53;0.70;;;14.90;58.30;;;;;;5097834;28;20036;-73
2021/04/08 08:47:14;;;;;;;2.20;0.60;;;14.90;58.30;;;;;;5098309;28;20071;-72
2021/04/08 08:49:57;;;;;;;2.67;0.77;;;15.00;58.00;;;;;;5098277;28;20361;-73
2021/04/08 08:52:30;;;;;;;1.87;0.40;;;14.90;57.90;;;;;;5097962;28;20055;-73
2021/04/08 08:54:56;;;;;;;2.42;0.55;;;14.90;58.20;;;;;;5098192;28;20050;-73
2021/04/08 08:57:25;;;;;;;2.58;1.00;;;14.90;58.30;;;;;;5096651;28;20129;-73
2021/04/08 08:59:51;;;;;;;6.95;1.13;;;15.00;56.10;;;;;;5097590;28;20048;-74
2021/04/08 09:02:18;;;;;;;5.00;1.10;;;15.00;51.20;;;;;;5097843;28;20044;-73
2021/04/08 09:04:44;;;;;;;3.45;0.98;;;15.00;48.10;;;;;;5097611;28;20037;-72
2021/04/08 09:07:12;;;;;;;11.73;1.85;;;14.90;47.90;;;;;;5097950;28;20105;-74
2021/04/08 09:09:46;;;;;;;7.13;1.58;;;14.90;48.30;;;;;;5097960;28;20047;-73
2021/04/08 09:12:16;;;;;;;7.95;1.45;;;14.90;49.80;;;;;;5097462;28;20040;-73
2021/04/08 09:14:44;;;;;;;6.22;1.15;;;14.90;49.60;;;;;;5097350;28;20036;-73
2021/04/08 09:17:10;;;;;;;7.57;1.38;;;14.90;50.20;;;;;;5097522;28;20117;-75
2021/04/08 09:19:39;;;;;;;5.32;1.33;;;14.90;50.40;;;;;;5097971;28;20446;-77
2021/04/08 09:22:10;;;;;;;8.02;1.20;;;14.90;50.40;;;;;;5097101;28;20123;-77
2021/04/08 09:24:46;;;;;;;9.88;1.40;;;14.90;50.50;;;;;;5097674;28;20042;-73
2021/04/08 09:27:22;;;;;;;6.75;1.15;;;14.90;51.00;;;;;;5097406;28;20043;-73
2021/04/08 09:29:53;;;;;;;10.40;1.35;;;14.90;51.40;;;;;;5097252;28;20115;-75
2021/04/08 09:32:45;;;;;;;7.15;1.40;;;14.90;51.60;;;;;;5096615;28;20075;-75
2021/04/08 09:35:17;;;;;;;6.00;0.90;;;14.90;51.20;;;;;;5096985;28;20414;-78
2021/04/08 09:37:50;;;;;;;5.47;1.20;;;14.90;51.90;;;;;;5096448;28;20035;-77
2021/04/08 09:40:31;;;;;;;8.52;1.42;;;14.90;51.50;;;;;;5097083;28;20028;-74
2021/04/08 09:43:08;;;;;;;6.63;1.25;;;14.90;49.40;;;;;;5097052;28;20467;-74
2021/04/08 09:45:35;;;;;;;3.90;1.40;;;14.80;46.30;;;;;;5096728;28;20047;-75
2021/04/08 09:48:15;;;;;;;4.00;1.67;;;14.80;44.80;;;;;;5096902;28;20036;-72
2021/04/08 09:51:02;;;;;;;3.33;1.35;;;14.60;43.90;;;;;;5097428;28;20044;-71
2021/04/08 09:53:36;;;;;;;4.32;1.58;;;14.60;43.60;;;;;;5097021;28;20040;-74
2021/04/08 09:56:04;;;;;;;4.85;1.60;;;14.50;43.30;;;;;;5096149;28;20036;-75
2021/04/08 09:58:33;;;;;;;3.88;1.70;;;14.50;42.90;;;;;;5096589;28;20048;-76
2021/04/08 10:01:01;;;;;;;4.20;1.70;;;14.40;42.20;;;;;;5096875;28;20048;-76
2021/04/08 10:03:43;;;;;;;2.45;1.45;;;14.40;42.20;;;;;;5096741;28;20044;-74
2021/04/08 10:06:18;;;;;;;4.65;1.70;;;14.50;43.20;;;;;;5096478;28;20114;-74
2021/04/08 10:08:44;;;;;;;3.00;1.40;;;14.40;44.10;;;;;;5096295;28;20036;-75
2021/04/08 10:11:26;;;;;;;2.80;1.15;;;14.40;44.70;;;;;;5089056;28;20069;-74
2021/04/08 10:13:52;;;;;;;2.13;0.73;;;14.40;45.40;;;;;;5076381;28;20436;-75
2021/04/08 10:16:18;;;;;;;3.67;1.25;;;14.30;46.10;;;;;;5076017;28;20032;-75
2021/04/08 10:18:59;;;;;;;4.28;1.48;;;14.30;46.50;;;;;;5076070;28;20048;-73
2021/04/08 10:21:45;;;;;;;3.15;1.00;;;14.30;47.00;;;;;;5068424;28;20036;-75
2021/04/08 10:24:24;;;;;;;2.58;1.25;;;14.30;47.70;;;;;;5078322;28;20033;-73
2021/04/08 10:27:20;;;;;;;4.40;1.05;;;14.30;48.00;;;;;;5061294;28;20040;-75
2021/04/08 10:30:17;;;;;;;3.47;0.93;;;14.40;48.30;;;;;;5066687;28;20048;-75
2021/04/08 10:32:44;;;;;;;4.28;1.25;;;14.40;48.60;;;;;;5081073;28;20335;-74
2021/04/08 10:35:25;;;;;;;3.33;1.33;;;14.40;49.00;;;;;;5085883;28;20035;-77
2021/04/08 10:38:06;;;;;;;3.63;1.20;;;14.40;49.10;;;;;;5085328;28;20043;-76
2021/04/08 10:40:35;;;;;;;3.58;1.25;;;14.40;49.20;;;;;;5084082;28;20040;-77
2021/04/08 10:43:11;;;;;;;4.43;0.95;;;14.30;49.50;;;;;;5076279;28;20094;-74
2021/04/08 10:45:37;;;;;;;;;;;14.40;49.70;;;;;;5076331;28;20115;-74
2021/04/08 10:48:06;;;;;;;4.07;1.27;;;14.40;49.80;;;;;;5075981;28;20014;-73
2021/04/08 10:50:32;;;;;;;5.88;1.40;;;14.40;50.10;;;;;;5075887;28;20044;-74
2021/04/08 10:53:00;;;;;;;3.10;1.30;;;14.40;50.10;;;;;;5075104;28;20050;-75
2021/04/08 10:55:26;;;;;;;3.10;1.00;;;14.40;50.40;;;;;;5075501;28;20044;-75
2021/04/08 10:57:52;;;;;;;5.70;1.30;;;14.40;50.60;;;;;;5075679;28;20060;-73
2021/04/08 11:00:19;;;;;;;3.63;1.20;;;14.40;50.80;;;;;;5075567;28;20334;-75
2021/04/08 11:02:46;;;;;;;4.03;1.27;;;14.40;51.10;;;;;;5074948;28;20040;-74
2021/04/08 11:05:18;;;;;;;4.15;1.50;;;14.40;51.20;;;;;;5075401;28;20040;-75
2021/04/08 11:07:47;;;;;;;4.30;1.23;;;14.50;51.20;;;;;;5075298;28;20047;-74
2021/04/08 11:10:20;;;;;;;3.88;1.23;;;14.50;51.10;;;;;;5075021;28;20041;-74
2021/04/08 11:12:47;;;;;;;3.40;1.08;;;14.50;50.90;;;;;;5074961;28;20371;-74
2021/04/08 11:15:15;;;;;;;3.25;1.33;;;14.50;50.70;;;;;;5074803;28;20336;-75
2021/04/08 11:17:47;;;;;;;2.00;0.93;;;14.50;50.60;;;;;;5074928;28;20036;-75
2021/04/08 11:20:24;;;;;;;4.68;1.30;;;14.50;50.30;;;;;;5075325;28;20321;-77
2021/04/08 11:22:50;;;;;;;3.72;1.60;;;14.60;50.10;;;;;;5074899;28;20040;-78
2021/04/08 11:25:16;;;;;;;3.30;1.63;;;14.50;50.00;;;;;;5074869;28;20436;-74
2021/04/08 11:27:45;;;;;;;7.38;1.48;;;14.50;49.90;;;;;;5074779;28;20405;-74
2021/04/08 11:30:39;;;;;;;3.75;0.90;;;14.50;49.10;;;;;;5075560;28;20043;-74
2021/04/08 11:33:20;;;;;;;3.13;0.90;;;14.50;48.80;;;;;;5069754;28;20451;-74
2021/04/08 11:35:46;;;;;;;5.60;1.33;;;14.70;48.90;;;;;;5074801;28;20048;-74
2021/04/08 11:38:24;;;;;;;1.55;0.75;;;14.90;48.70;;;;;;5074745;28;20067;-75
2021/04/08 11:41:02;;;;;;;3.22;0.82;;;15.00;48.50;;;;;;5075282;28;20044;-73
2021/04/08 11:43:33;;;;;;;1.83;0.63;;;15.10;48.20;;;;;;5074746;28;20064;-75
2021/04/08 11:46:01;;;;;;;3.47;0.55;;;15.20;48.20;;;;;;5074292;28;20106;-74
2021/04/08 11:48:40;;;;;;;2.92;0.93;;;15.30;48.20;;;;;;5074502;28;20359;-73
2021/04/08 11:51:07;;;;;;;2.58;0.60;;;15.30;47.90;;;;;;5074710;28;20037;-73
2021/04/08 11:53:38;;;;;;;2.63;0.50;;;15.40;48.10;;;;;;5074082;28;20421;-75
2021/04/08 11:56:21;;;;;;;2.70;0.60;;;15.40;47.90;;;;;;5076192;28;20043;-73
2021/04/08 11:58:47;;;;;;;3.05;0.60;;;15.40;47.70;;;;;;5078283;28;20443;-75
2021/04/08 12:01:15;;;;;;;1.85;0.50;;;15.40;47.70;;;;;;5078942;28;20036;-73
2021/04/08 12:03:44;;;;;;;1.85;0.50;;;15.40;47.60;;;;;;5079096;28;20044;-75
2021/04/08 12:06:11;;;;;;;1.45;0.47;;;15.40;47.60;;;;;;5078392;28;20333;-74
2021/04/08 12:08:53;;;;;;;2.03;0.63;;;15.40;47.60;;;;;;5078424;28;20051;-75
2021/04/08 12:11:20;;;;;;;1.42;0.60;;;15.40;47.40;;;;;;5078582;28;20040;-75
2021/04/08 12:14:06;;;;;;;2.05;0.60;;;15.50;47.60;;;;;;5078100;28;20052;-75
2021/04/08 12:16:32;;;;;;;2.78;0.70;;;15.50;47.50;;;;;;5077979;28;20044;-74
2021/04/08 12:18:58;;;;;;;2.50;0.60;;;15.50;47.50;;;;;;5078191;28;20036;-75
2021/04/08 12:21:27;;;;;;;1.52;0.70;;;15.50;47.40;;;;;;5060461;28;20085;-75
2021/04/08 12:23:56;;;;;;;2.22;0.77;;;15.50;47.40;;;;;;5078347;28;20075;-75
2021/04/08 12:26:33;;;;;;;1.95;0.90;;;15.50;47.30;;;;;;5078168;28;20047;-75
2021/04/08 12:28:59;;;;;;;3.15;0.40;;;15.60;47.30;;;;;;5078455;28;20041;-74
2021/04/08 12:31:25;;;;;;;1.20;0.55;;;15.60;47.40;;;;;;5078157;28;20388;-75
2021/04/08 12:33:51;;;;;;;2.65;0.50;;;15.70;47.30;;;;;;5077574;28;20104;-75
2021/04/08 12:36:16;;;;;;;1.83;0.45;;;15.70;47.30;;;;;;5078249;28;20082;-75
2021/04/08 12:38:42;;;;;;;2.33;0.65;;;15.80;47.30;;;;;;5077858;28;20112;-75
2021/04/08 12:41:08;;;;;;;1.25;0.50;;;15.80;47.20;;;;;;5077821;28;20123;-74
2021/04/08 12:43:35;;;;;;;2.92;0.40;;;15.80;47.10;;;;;;5077891;28;20398;-75
2021/04/08 12:46:02;;;;;;;1.67;0.50;;;15.80;47.10;;;;;;5077560;28;20036;-73
2021/04/08 12:48:28;;;;;;;1.63;0.47;;;15.80;47.10;;;;;;5077418;28;20050;-74
2021/04/08 12:50:56;;;;;;;1.52;0.50;;;15.80;47.10;;;;;;5077512;28;20129;-75
2021/04/08 12:53:23;;;;;;;2.40;0.50;;;15.80;47.00;;;;;;5078329;28;20048;-73
2021/04/08 12:55:56;;;;;;;3.00;0.77;;;15.80;46.90;;;;;;5077811;28;20041;-76
2021/04/08 12:58:23;;;;;;;1.50;0.45;;;15.80;46.80;;;;;;5077403;28;20052;-74
2021/04/08 13:00:49;;;;;;;2.92;0.70;;;15.80;46.70;;;;;;5077199;28;20443;-74